Time;durP1;ratioP1;P1;durP2;ratioP2;P2;SDS_P1;SDS_P2;PMS_P1;PMS_P2;Temp;Humidity;BMP_temperature;BMP_pressure;BME280_temperature;BME280_humidity;BME280_pressure;Samples;Min_cycle;Max_cycle;Signal;HPM_P1;HPM_P2
2022/06/21 00:01:16;;;;;;;0.40;0.30;;;16.60;99.90;;;;;;5076125;28;20441;-80
2022/06/21 00:03:43;;;;;;;0.60;0.60;;;16.70;99.90;;;;;;5076066;28;20442;-80
2022/06/21 00:06:13;;;;;;;0.60;0.37;;;16.70;99.90;;;;;;5075925;28;20469;-80
2022/06/21 00:08:40;;;;;;;0.97;0.30;;;16.70;99.90;;;;;;5075983;28;20429;-80
2022/06/21 00:11:17;;;;;;;0.40;0.30;;;16.70;99.90;;;;;;5075828;28;20445;-80
2022/06/21 00:13:44;;;;;;;0.40;0.40;;;16.70;99.90;;;;;;5075628;28;20440;-80
2022/06/21 00:16:13;;;;;;;0.90;0.70;;;16.70;99.90;;;;;;5075741;28;20468;-80
2022/06/21 00:18:42;;;;;;;0.60;0.40;;;16.70;99.90;;;;;;5075763;28;20445;-80
2022/06/21 00:21:13;;;;;;;0.40;0.33;;;16.70;99.90;;;;;;5075712;28;20448;-80
2022/06/21 00:23:40;;;;;;;0.30;0.30;;;16.80;99.90;;;;;;5075402;28;20796;-80
2022/06/21 00:26:08;;;;;;;0.80;0.30;;;16.70;99.90;;;;;;5075513;28;20468;-80
2022/06/21 00:28:35;;;;;;;1.00;0.43;;;16.70;99.90;;;;;;5075283;28;20441;-79
2022/06/21 00:31:02;;;;;;;0.30;0.30;;;16.70;99.90;;;;;;5075451;28;20456;-80
2022/06/21 00:33:30;;;;;;;0.60;0.40;;;16.60;99.90;;;;;;5075465;28;20441;-80
2022/06/21 00:36:00;;;;;;;0.80;0.40;;;16.70;99.90;;;;;;5075074;28;20584;-80
2022/06/21 00:38:32;;;;;;;0.40;0.40;;;16.70;99.90;;;;;;5075413;28;20456;-80
2022/06/21 00:41:02;;;;;;;0.40;0.40;;;16.70;99.90;;;;;;5075062;28;20776;-79
2022/06/21 00:43:32;;;;;;;0.50;0.40;;;16.70;99.90;;;;;;5076111;28;20444;-79
2022/06/21 00:46:01;;;;;;;2.23;0.43;;;16.70;99.90;;;;;;5075220;28;20484;-79
2022/06/21 00:48:35;;;;;;;0.50;0.40;;;16.70;99.90;;;;;;5075129;28;20978;-80
2022/06/21 00:51:12;;;;;;;0.50;0.50;;;16.70;99.90;;;;;;5075154;28;20437;-80
2022/06/21 00:53:44;;;;;;;0.70;0.50;;;16.70;99.90;;;;;;5075105;28;20428;-80
2022/06/21 00:56:15;;;;;;;0.40;0.40;;;16.70;99.90;;;;;;5074982;28;20468;-80
2022/06/21 00:58:42;;;;;;;0.40;0.40;;;16.70;99.90;;;;;;5074722;28;20987;-80
2022/06/21 01:01:22;;;;;;;0.50;0.50;;;16.60;99.90;;;;;;5074913;28;20483;-80
2022/06/21 01:03:53;;;;;;;0.40;0.33;;;16.60;99.90;;;;;;5074901;28;20444;-80
2022/06/21 01:06:27;;;;;;;0.70;0.50;;;16.60;99.90;;;;;;5073919;28;20465;-80
2022/06/21 01:08:58;;;;;;;2.00;0.40;;;16.60;99.90;;;;;;5074663;28;20803;-80
2022/06/21 01:11:32;;;;;;;0.87;0.50;;;16.60;99.90;;;;;;5074678;28;20437;-81
2022/06/21 01:14:00;;;;;;;0.40;0.30;;;16.60;99.90;;;;;;5074719;28;20452;-81
2022/06/21 01:16:30;;;;;;;0.40;0.40;;;16.60;99.90;;;;;;5074621;28;20804;-81
2022/06/21 01:18:56;;;;;;;0.30;0.30;;;16.70;99.90;;;;;;5074522;28;20475;-81
2022/06/21 01:21:23;;;;;;;1.23;0.60;;;16.70;99.90;;;;;;5074539;28;20445;-81
2022/06/21 01:24:02;;;;;;;0.50;0.50;;;16.70;99.90;;;;;;5074481;28;20445;-81
2022/06/21 01:26:49;;;;;;;0.50;0.50;;;16.70;99.90;;;;;;5074172;28;20436;-81
2022/06/21 01:29:18;;;;;;;0.33;0.30;;;16.70;99.90;;;;;;5074413;28;20441;-81
2022/06/21 01:31:45;;;;;;;0.40;0.30;;;16.70;99.90;;;;;;5073911;28;21003;-81
2022/06/21 01:34:15;;;;;;;0.40;0.30;;;16.60;99.90;;;;;;5074224;28;20519;-81
2022/06/21 01:36:43;;;;;;;0.50;0.30;;;16.50;99.90;;;;;;5073890;28;20484;-81
2022/06/21 01:39:13;;;;;;;1.60;0.50;;;16.60;99.90;;;;;;5074179;28;20449;-81
2022/06/21 01:41:43;;;;;;;0.60;0.50;;;16.50;99.90;;;;;;5074732;28;20463;-82
2022/06/21 01:44:16;;;;;;;0.90;0.50;;;16.50;99.90;;;;;;5074099;28;20429;-81
2022/06/21 01:46:43;;;;;;;0.57;0.40;;;16.40;99.90;;;;;;5074087;28;20429;-81
2022/06/21 01:49:15;;;;;;;0.50;0.40;;;16.30;99.90;;;;;;5073949;28;20452;-82
2022/06/21 01:51:45;;;;;;;0.53;0.50;;;16.20;99.90;;;;;;5073919;28;20440;-82
2022/06/21 01:54:15;;;;;;;0.40;0.40;;;16.20;99.90;;;;;;5073865;28;20809;-81
2022/06/21 01:56:42;;;;;;;0.40;0.40;;;16.20;99.90;;;;;;5073584;28;20951;-82
2022/06/21 01:59:17;;;;;;;0.93;0.87;;;16.20;99.90;;;;;;5073828;28;20445;-80
2022/06/21 02:01:50;;;;;;;0.57;0.30;;;16.10;99.90;;;;;;5074253;28;20444;-80
2022/06/21 02:04:20;;;;;;;0.40;0.33;;;16.10;99.90;;;;;;5074363;28;20441;-79
2022/06/21 02:06:49;;;;;;;1.43;0.60;;;16.10;99.90;;;;;;5073781;28;20437;-80
2022/06/21 02:09:20;;;;;;;0.40;0.30;;;16.00;99.90;;;;;;5073411;28;20948;-80
2022/06/21 02:11:51;;;;;;;0.90;0.50;;;16.00;99.90;;;;;;5073324;28;20437;-80
2022/06/21 02:14:30;;;;;;;0.40;0.30;;;16.00;99.90;;;;;;5073604;28;20440;-80
2022/06/21 02:17:05;;;;;;;0.40;0.30;;;16.00;99.90;;;;;;5073650;28;20816;-80
2022/06/21 02:19:39;;;;;;;0.37;0.30;;;16.00;99.90;;;;;;5073193;28;20451;-80
2022/06/21 02:22:06;;;;;;;0.50;0.40;;;16.10;99.90;;;;;;5074099;28;20478;-80
2022/06/21 02:24:33;;;;;;;0.40;0.40;;;16.10;99.90;;;;;;5073523;28;20476;-80
2022/06/21 02:27:02;;;;;;;0.60;0.40;;;16.10;99.90;;;;;;5073463;28;20449;-80
2022/06/21 02:29:31;;;;;;;0.60;0.57;;;16.00;99.90;;;;;;5073115;28;20944;-80
2022/06/21 02:31:59;;;;;;;1.07;0.93;;;16.00;99.90;;;;;;5073348;28;20448;-80
2022/06/21 02:34:32;;;;;;;0.70;0.50;;;16.00;99.90;;;;;;5073352;28;20473;-79
2022/06/21 02:37:01;;;;;;;1.80;0.60;;;15.90;99.90;;;;;;5073214;28;20503;-80
2022/06/21 02:39:30;;;;;;;0.70;0.50;;;15.90;99.90;;;;;;5073329;28;20468;-80
2022/06/21 02:42:01;;;;;;;0.40;0.33;;;15.80;99.90;;;;;;5073346;28;20443;-80
2022/06/21 02:44:33;;;;;;;0.40;0.37;;;15.80;99.90;;;;;;5073651;28;20854;-80
2022/06/21 02:47:06;;;;;;;0.40;0.33;;;15.80;99.90;;;;;;5073024;28;20944;-80
2022/06/21 02:49:36;;;;;;;1.23;0.50;;;15.90;99.90;;;;;;5072963;28;20425;-80
2022/06/21 02:52:07;;;;;;;0.50;0.40;;;15.80;99.90;;;;;;5073389;28;20441;-80
2022/06/21 02:54:38;;;;;;;0.40;0.30;;;15.80;99.90;;;;;;5072827;28;20469;-80
2022/06/21 02:57:09;;;;;;;0.40;0.40;;;15.80;99.90;;;;;;5073210;28;20422;-80
2022/06/21 02:59:41;;;;;;;0.57;0.40;;;15.80;99.90;;;;;;5073207;28;20814;-80
2022/06/21 03:02:11;;;;;;;0.40;0.40;;;15.70;99.90;;;;;;5072853;28;20794;-80
2022/06/21 03:04:41;;;;;;;0.43;0.40;;;15.70;99.90;;;;;;5073054;28;20472;-80
2022/06/21 03:07:12;;;;;;;0.40;0.40;;;15.70;99.90;;;;;;5073106;28;20429;-80
2022/06/21 03:09:39;;;;;;;0.97;0.30;;;15.70;99.90;;;;;;5073118;28;20437;-80
2022/06/21 03:12:07;;;;;;;0.60;0.40;;;15.70;99.90;;;;;;5073170;28;20457;-80
2022/06/21 03:14:38;;;;;;;0.60;0.40;;;15.70;99.90;;;;;;5072963;28;20460;-80
2022/06/21 03:17:09;;;;;;;0.90;0.40;;;15.70;99.90;;;;;;5073574;28;20429;-80
2022/06/21 03:19:39;;;;;;;0.40;0.40;;;15.70;99.90;;;;;;5072995;28;20436;-80
2022/06/21 03:22:16;;;;;;;0.60;0.40;;;15.60;99.90;;;;;;5072986;28;20448;-80
2022/06/21 03:24:44;;;;;;;8.33;0.60;;;15.70;99.90;;;;;;5072872;28;20982;-80
2022/06/21 03:27:19;;;;;;;0.93;0.57;;;15.70;99.90;;;;;;5072561;28;20449;-80
2022/06/21 03:29:47;;;;;;;0.80;0.53;;;15.70;99.90;;;;;;5072916;28;20924;-80
2022/06/21 03:32:14;;;;;;;1.60;0.53;;;15.70;99.90;;;;;;5076221;28;20939;-80
2022/06/21 03:34:42;;;;;;;0.60;0.40;;;15.70;99.90;;;;;;5076450;28;20457;-79
2022/06/21 03:37:09;;;;;;;0.40;0.30;;;15.70;99.90;;;;;;5076129;28;20861;-80
2022/06/21 03:42:26;;;;;;;0.50;0.40;;;15.70;99.90;;;;;;5076511;28;20423;-80
2022/06/21 03:44:59;;;;;;;0.60;0.47;;;15.80;99.90;;;;;;5076350;28;20460;-80
2022/06/21 03:47:31;;;;;;;0.50;0.40;;;15.80;99.90;;;;;;5076421;28;20409;-80
2022/06/21 03:50:02;;;;;;;0.70;0.40;;;15.80;99.90;;;;;;5076339;28;20421;-80
2022/06/21 03:52:43;;;;;;;0.40;0.30;;;15.80;99.90;;;;;;5076254;28;20468;-80
2022/06/21 03:55:21;;;;;;;0.50;0.50;;;15.90;99.90;;;;;;5076149;28;20471;-80
2022/06/21 03:57:54;;;;;;;0.60;0.47;;;15.90;99.90;;;;;;5076225;28;20435;-80
2022/06/21 04:00:23;;;;;;;0.40;0.30;;;15.90;99.90;;;;;;5076158;28;20437;-80
2022/06/21 04:02:53;;;;;;;0.40;0.37;;;16.00;99.90;;;;;;5076062;28;20443;-80
2022/06/21 04:05:25;;;;;;;0.37;0.37;;;15.90;99.90;;;;;;5075965;28;20460;-80
2022/06/21 04:07:57;;;;;;;0.73;0.40;;;16.00;99.90;;;;;;5076014;28;20433;-80
2022/06/21 04:10:31;;;;;;;0.40;0.37;;;16.00;99.90;;;;;;5076222;28;20425;-80
2022/06/21 04:13:02;;;;;;;0.37;0.30;;;16.00;99.90;;;;;;5075863;28;20469;-80
2022/06/21 04:15:36;;;;;;;0.40;0.40;;;16.00;99.90;;;;;;5075500;28;20844;-80
2022/06/21 04:18:11;;;;;;;0.40;0.40;;;16.00;99.90;;;;;;5075542;28;20781;-79
2022/06/21 04:20:43;;;;;;;1.73;0.57;;;16.10;99.90;;;;;;5075786;28;20448;-79
2022/06/21 04:23:15;;;;;;;0.40;0.40;;;16.10;99.90;;;;;;5075763;28;20468;-80
2022/06/21 04:25:53;;;;;;;0.40;0.37;;;16.10;99.90;;;;;;5075854;28;20464;-80
2022/06/21 04:28:25;;;;;;;0.47;0.47;;;16.00;99.90;;;;;;5075781;28;20453;-80
2022/06/21 04:31:01;;;;;;;0.40;0.40;;;16.00;99.90;;;;;;5075524;28;20470;-79
2022/06/21 04:33:32;;;;;;;0.40;0.40;;;16.00;99.90;;;;;;5075490;28;20468;-80
2022/06/21 04:36:06;;;;;;;0.40;0.37;;;16.00;99.90;;;;;;5074938;28;21003;-79
2022/06/21 04:38:38;;;;;;;0.37;0.33;;;16.00;99.90;;;;;;5075457;28;20475;-79
2022/06/21 04:41:08;;;;;;;1.70;0.50;;;16.10;99.90;;;;;;5074775;28;20437;-79
2022/06/21 04:43:41;;;;;;;1.80;0.80;;;16.10;99.90;;;;;;5075268;28;20460;-79
2022/06/21 04:46:14;;;;;;;0.70;0.50;;;16.20;99.90;;;;;;5074932;28;21003;-79
2022/06/21 04:48:46;;;;;;;0.60;0.50;;;16.20;99.90;;;;;;5075588;28;20787;-79
2022/06/21 04:51:18;;;;;;;0.40;0.40;;;16.20;99.90;;;;;;5074863;28;20805;-79
2022/06/21 04:53:52;;;;;;;0.40;0.40;;;16.30;99.90;;;;;;5075363;28;20476;-79
2022/06/21 04:56:33;;;;;;;0.40;0.33;;;16.20;99.90;;;;;;5075058;28;20468;-80
2022/06/21 04:59:01;;;;;;;2.60;0.50;;;16.20;99.90;;;;;;5075029;28;20834;-79
2022/06/21 05:01:33;;;;;;;0.40;0.33;;;16.20;99.90;;;;;;5074644;28;20460;-79
2022/06/21 05:04:04;;;;;;;0.60;0.57;;;16.20;99.90;;;;;;5074926;28;20905;-79
2022/06/21 05:06:31;;;;;;;0.60;0.40;;;16.20;99.90;;;;;;5074563;28;20444;-79
2022/06/21 05:08:59;;;;;;;0.40;0.40;;;16.20;99.90;;;;;;5074783;28;20453;-80
2022/06/21 05:11:25;;;;;;;0.40;0.40;;;16.20;99.90;;;;;;5074514;28;20441;-78
2022/06/21 05:13:56;;;;;;;0.67;0.67;;;16.30;99.90;;;;;;5074597;28;20480;-79
2022/06/21 05:16:27;;;;;;;0.47;0.47;;;16.40;99.90;;;;;;5074540;28;20477;-78
2022/06/21 05:18:59;;;;;;;0.50;0.50;;;16.40;99.90;;;;;;5074618;28;20437;-79
2022/06/21 05:21:32;;;;;;;0.40;0.40;;;16.30;99.90;;;;;;5074876;28;20756;-80
2022/06/21 05:24:00;;;;;;;0.77;0.57;;;16.30;99.90;;;;;;5074591;28;20478;-79
2022/06/21 05:26:34;;;;;;;0.70;0.50;;;16.30;99.90;;;;;;5074473;28;20455;-82
2022/06/21 05:29:08;;;;;;;0.40;0.30;;;16.30;99.90;;;;;;5074431;28;20441;-81
2022/06/21 05:31:41;;;;;;;0.60;0.40;;;16.40;99.90;;;;;;5074379;28;20433;-81
2022/06/21 05:34:15;;;;;;;1.17;0.57;;;16.60;99.90;;;;;;5073842;28;20465;-82
2022/06/21 05:36:53;;;;;;;0.60;0.50;;;16.60;99.90;;;;;;5074024;28;20472;-81
2022/06/21 05:39:23;;;;;;;0.50;0.50;;;16.70;99.90;;;;;;5074227;28;20440;-81
2022/06/21 05:41:52;;;;;;;0.40;0.37;;;16.70;99.90;;;;;;5074240;28;20445;-81
2022/06/21 05:44:25;;;;;;;0.90;0.57;;;16.80;99.90;;;;;;5074067;28;20449;-81
2022/06/21 05:46:57;;;;;;;0.50;0.40;;;16.80;99.90;;;;;;5074104;28;20490;-81
2022/06/21 05:49:28;;;;;;;1.67;0.70;;;16.80;99.90;;;;;;5074007;28;20935;-81
2022/06/21 05:51:57;;;;;;;0.50;0.50;;;16.70;99.90;;;;;;5073981;28;20440;-81
2022/06/21 05:54:29;;;;;;;0.30;0.30;;;16.70;99.90;;;;;;5072900;28;20476;-81
2022/06/21 05:56:56;;;;;;;0.40;0.30;;;16.70;99.90;;;;;;5073935;28;20429;-81
2022/06/21 05:59:25;;;;;;;0.40;0.30;;;16.80;99.90;;;;;;5074062;28;20449;-82
2022/06/21 06:01:58;;;;;;;0.80;0.50;;;16.90;99.90;;;;;;5073780;28;20449;-81
2022/06/21 06:04:33;;;;;;;0.60;0.40;;;17.00;99.90;;;;;;5073691;28;20461;-81
2022/06/21 06:07:01;;;;;;;0.47;0.47;;;17.10;99.90;;;;;;5073716;28;20433;-81
2022/06/21 06:09:32;;;;;;;0.57;0.57;;;17.30;99.90;;;;;;5073361;28;20820;-81
2022/06/21 06:12:02;;;;;;;0.70;0.40;;;17.40;99.90;;;;;;5073751;28;20445;-81
2022/06/21 06:14:37;;;;;;;1.57;0.53;;;17.70;99.90;;;;;;5073545;28;20488;-81
2022/06/21 06:17:13;;;;;;;0.87;0.60;;;18.00;99.90;;;;;;5073514;28;20432;-81
2022/06/21 06:19:47;;;;;;;0.50;0.47;;;18.50;99.90;;;;;;5073654;28;20432;-81
2022/06/21 06:22:22;;;;;;;0.70;0.47;;;18.90;99.90;;;;;;5073606;28;20433;-81
2022/06/21 06:24:55;;;;;;;0.50;0.43;;;19.30;99.90;;;;;;5073225;28;21001;-81
2022/06/21 06:27:33;;;;;;;0.50;0.50;;;19.70;99.90;;;;;;5073583;28;20433;-81
2022/06/21 06:30:03;;;;;;;0.63;0.50;;;20.00;99.90;;;;;;5073559;28;20429;-81
2022/06/21 06:32:33;;;;;;;0.50;0.50;;;20.40;99.90;;;;;;5073474;28;20448;-81
2022/06/21 06:35:02;;;;;;;0.40;0.40;;;20.80;99.90;;;;;;5073257;28;21030;-81
2022/06/21 06:37:36;;;;;;;0.57;0.57;;;20.90;99.90;;;;;;5072971;28;20241;-82
2022/06/21 06:40:05;;;;;;;0.68;0.50;;;21.30;99.90;;;;;;5073103;28;20642;-81
2022/06/21 06:42:37;;;;;;;0.57;0.50;;;21.60;99.90;;;;;;5073334;28;20297;-81
2022/06/21 06:45:14;;;;;;;0.90;0.60;;;22.00;99.90;;;;;;5073063;28;20244;-82
2022/06/21 06:47:45;;;;;;;0.63;0.47;;;22.10;99.90;;;;;;5073370;28;20243;-82
2022/06/21 06:50:19;;;;;;;0.80;0.80;;;22.00;99.90;;;;;;5073279;28;20208;-82
2022/06/21 06:52:50;;;;;;;1.02;0.93;;;22.00;99.90;;;;;;5072969;28;20548;-82
2022/06/21 06:55:24;;;;;;;4.10;0.60;;;22.00;99.90;;;;;;5073165;28;20222;-81
2022/06/21 06:57:57;;;;;;;0.93;0.40;;;22.00;99.90;;;;;;5073229;28;20205;-81
2022/06/21 07:00:27;;;;;;;0.50;0.50;;;22.10;99.90;;;;;;5072890;28;20188;-82
2022/06/21 07:02:58;;;;;;;0.75;0.60;;;22.00;99.90;;;;;;5072807;28;20562;-82
2022/06/21 07:05:32;;;;;;;0.70;0.70;;;22.20;99.90;;;;;;5075861;28;20701;-81
2022/06/21 07:08:04;;;;;;;0.90;0.90;;;22.10;99.90;;;;;;5077846;28;20236;-82
2022/06/21 07:10:31;;;;;;;1.23;0.90;;;21.80;99.90;;;;;;5077148;28;20197;-82
2022/06/21 07:12:58;;;;;;;0.70;0.60;;;21.70;99.90;;;;;;5077213;28;20227;-82
2022/06/21 07:15:34;;;;;;;1.10;0.70;;;21.50;99.90;;;;;;5077068;28;20501;-81
2022/06/21 07:18:01;;;;;;;0.90;0.70;;;21.40;99.90;;;;;;5076994;28;20205;-82
2022/06/21 07:20:34;;;;;;;0.80;0.70;;;21.40;99.90;;;;;;5076981;28;20198;-82
2022/06/21 07:23:01;;;;;;;0.73;0.43;;;21.10;99.90;;;;;;5077040;28;20194;-81
2022/06/21 07:25:33;;;;;;;0.70;0.70;;;20.90;99.90;;;;;;5076756;28;20231;-81
2022/06/21 07:28:05;;;;;;;0.93;0.83;;;20.90;99.90;;;;;;5076486;28;20436;-81
2022/06/21 07:30:39;;;;;;;0.70;0.70;;;20.90;99.90;;;;;;5076717;28;20483;-81
2022/06/21 07:33:12;;;;;;;1.00;0.80;;;21.00;99.90;;;;;;5076371;28;20900;-82
2022/06/21 07:35:45;;;;;;;0.77;0.73;;;21.10;99.90;;;;;;5076550;28;20482;-81
2022/06/21 07:38:15;;;;;;;0.53;0.50;;;21.20;99.90;;;;;;5076570;28;20436;-81
2022/06/21 07:40:47;;;;;;;0.40;0.40;;;21.20;99.90;;;;;;5076477;28;20447;-81
2022/06/21 07:43:20;;;;;;;0.73;0.63;;;21.30;99.90;;;;;;5076181;28;20439;-82
2022/06/21 07:45:52;;;;;;;0.73;0.70;;;21.20;99.90;;;;;;5076336;28;20464;-81
2022/06/21 07:48:23;;;;;;;0.67;0.67;;;21.20;99.90;;;;;;5076361;28;20432;-81
2022/06/21 07:50:54;;;;;;;0.63;0.63;;;21.30;99.90;;;;;;5076334;28;20435;-81
2022/06/21 07:53:27;;;;;;;0.93;0.60;;;21.40;99.90;;;;;;5075968;28;20907;-81
2022/06/21 07:55:59;;;;;;;1.33;0.93;;;21.40;99.90;;;;;;5076108;28;20975;-82
2022/06/21 07:58:32;;;;;;;1.30;0.77;;;21.70;99.90;;;;;;5076488;28;20429;-81
2022/06/21 08:06:45;;;;;;;0.80;0.70;;;21.10;99.90;;;;;;5076347;28;20551;-81
2022/06/21 08:09:22;;;;;;;0.70;0.70;;;20.90;99.90;;;;;;5075992;28;20445;-81
2022/06/21 08:11:51;;;;;;;1.27;0.70;;;20.70;99.90;;;;;;5076003;28;20794;-81
2022/06/21 08:14:18;;;;;;;1.23;0.70;;;20.60;99.90;;;;;;5075735;28;20484;-81
2022/06/21 08:16:52;;;;;;;0.50;0.50;;;20.40;99.90;;;;;;5075184;28;20432;-81
2022/06/21 08:19:26;;;;;;;1.03;0.93;;;20.60;99.90;;;;;;5075876;28;20429;-81
2022/06/21 08:21:59;;;;;;;0.67;0.67;;;20.90;99.90;;;;;;5075794;28;20425;-82
2022/06/21 08:24:34;;;;;;;0.70;0.60;;;21.10;99.90;;;;;;5075932;28;20456;-81
2022/06/21 08:27:14;;;;;;;1.10;0.60;;;21.10;99.90;;;;;;5075760;28;20408;-81
2022/06/21 08:29:48;;;;;;;1.20;0.80;;;21.10;99.90;;;;;;5075705;28;20429;-81
2022/06/21 08:32:23;;;;;;;0.87;0.87;;;21.00;99.90;;;;;;5075314;28;20435;-80
2022/06/21 08:34:54;;;;;;;0.60;0.60;;;21.00;99.90;;;;;;5075110;28;20982;-81
2022/06/21 08:37:30;;;;;;;0.50;0.50;;;21.00;99.90;;;;;;5075137;28;20476;-80
2022/06/21 08:40:06;;;;;;;0.47;0.47;;;20.90;99.90;;;;;;5075139;28;20863;-80
2022/06/21 08:43:09;;;;;;;0.47;0.47;;;20.90;99.90;;;;;;5075140;28;20436;-80
2022/06/21 08:45:59;;;;;;;0.40;0.40;;;20.70;99.90;;;;;;5075266;28;20812;-81
2022/06/21 08:48:55;;;;;;;0.70;0.70;;;20.60;99.90;;;;;;5075288;28;20439;-81
2022/06/21 08:52:03;;;;;;;0.57;0.57;;;20.40;99.90;;;;;;5075126;28;20436;-80
2022/06/21 08:54:43;;;;;;;0.53;0.53;;;20.20;99.90;;;;;;5038576;28;20867;-81
2022/06/21 08:57:18;;;;;;;0.83;0.83;;;20.10;99.90;;;;;;5075084;28;20440;-81
2022/06/21 08:59:57;;;;;;;0.40;0.40;;;19.90;99.90;;;;;;5075059;28;20429;-81
2022/06/21 09:02:36;;;;;;;0.73;0.60;;;19.90;99.90;;;;;;5075102;28;20437;-80
2022/06/21 09:05:16;;;;;;;0.47;0.47;;;20.00;99.90;;;;;;5074879;28;20472;-80
2022/06/21 09:08:17;;;;;;;2.63;0.63;;;20.20;99.90;;;;;;5074908;28;20437;-80
2022/06/21 09:10:59;;;;;;;0.70;0.70;;;20.30;99.90;;;;;;5063698;28;20857;-81
2022/06/21 09:13:42;;;;;;;0.40;0.40;;;20.30;99.90;;;;;;5074841;28;20794;-80
2022/06/21 09:16:18;;;;;;;0.70;0.50;;;20.60;99.90;;;;;;5074587;28;21002;-81
2022/06/21 09:18:57;;;;;;;0.80;0.70;;;20.90;99.90;;;;;;5074362;28;20903;-81
2022/06/21 09:21:27;;;;;;;0.70;0.70;;;21.30;99.90;;;;;;5074339;28;20435;-81
2022/06/21 09:24:01;;;;;;;1.17;0.60;;;21.70;99.90;;;;;;5074878;28;20777;-81
2022/06/21 09:26:40;;;;;;;1.50;0.87;;;21.90;99.90;;;;;;5074466;28;20436;-81
2022/06/21 09:29:21;;;;;;;0.50;0.50;;;22.50;99.90;;;;;;5073538;28;20498;-81
2022/06/21 09:32:03;;;;;;;0.70;0.70;;;23.00;99.90;;;;;;5074093;28;20938;-81
2022/06/21 09:34:39;;;;;;;0.67;0.60;;;23.10;99.90;;;;;;5074254;28;20480;-81
2022/06/21 09:37:18;;;;;;;0.80;0.80;;;23.00;99.90;;;;;;5073903;28;20731;-81
2022/06/21 09:39:54;;;;;;;0.63;0.63;;;23.20;99.90;;;;;;5074198;28;20425;-81
2022/06/21 09:42:29;;;;;;;1.83;0.87;;;23.40;99.90;;;;;;5074269;28;20280;-81
2022/06/21 09:45:06;;;;;;;0.70;0.70;;;23.50;99.90;;;;;;5074175;28;20221;-82
2022/06/21 09:47:38;;;;;;;0.73;0.60;;;23.50;99.90;;;;;;5073836;28;20641;-81
2022/06/21 09:50:14;;;;;;;1.08;0.80;;;23.40;99.90;;;;;;5074137;28;20574;-81
2022/06/21 09:52:46;;;;;;;0.70;0.70;;;23.50;99.90;;;;;;5073711;28;20564;-81
2022/06/21 09:55:21;;;;;;;0.80;0.70;;;23.40;99.90;;;;;;5073531;28;20717;-81
2022/06/21 09:57:57;;;;;;;0.87;0.63;;;23.40;99.90;;;;;;5073652;28;20189;-81
2022/06/21 10:00:33;;;;;;;1.85;0.77;;;23.40;99.90;;;;;;5073911;28;20186;-81
2022/06/21 10:03:14;;;;;;;1.00;0.95;;;23.50;99.90;;;;;;5074083;28;20209;-81
2022/06/21 10:05:48;;;;;;;2.10;1.43;;;23.70;99.90;;;;;;5074024;28;20229;-81
2022/06/21 10:08:24;;;;;;;1.13;0.75;;;23.70;99.90;;;;;;5073806;28;20214;-81
2022/06/21 10:11:04;;;;;;;0.90;0.70;;;23.60;99.90;;;;;;5073816;28;20194;-81
2022/06/21 10:13:52;;;;;;;0.80;0.70;;;23.70;99.90;;;;;;5073745;28;20527;-81
2022/06/21 10:16:36;;;;;;;0.80;0.80;;;23.90;99.90;;;;;;5073537;28;20287;-81
2022/06/21 10:19:11;;;;;;;2.47;0.70;;;23.80;99.90;;;;;;5073357;28;20787;-81
2022/06/21 10:22:04;;;;;;;0.87;0.87;;;23.90;99.90;;;;;;5073339;28;20642;-81
2022/06/21 10:24:50;;;;;;;0.70;0.70;;;23.90;99.90;;;;;;5073528;28;20221;-81
2022/06/21 10:28:04;;;;;;;0.70;0.70;;;24.00;99.90;;;;;;5073598;28;20205;-81
2022/06/21 10:30:43;;;;;;;1.33;0.70;;;24.10;99.90;;;;;;5068069;28;20289;-81
2022/06/21 10:33:36;;;;;;;1.00;0.68;;;24.20;99.70;;;;;;5073165;28;20530;-81
2022/06/21 10:36:18;;;;;;;1.20;1.10;;;24.10;99.50;;;;;;5072818;28;20752;-82
2022/06/21 10:39:11;;;;;;;1.10;0.90;;;24.30;99.60;;;;;;5072876;28;20186;-81
2022/06/21 10:44:51;;;;;;;0.63;0.63;;;24.30;99.90;;;;;;5072696;28;20213;-82
2022/06/21 10:47:33;;;;;;;1.02;0.90;;;24.30;99.90;;;;;;5073087;28;20190;-82
2022/06/21 10:50:15;;;;;;;0.77;0.73;;;24.40;99.50;;;;;;5073398;28;20190;-82
2022/06/21 10:53:13;;;;;;;0.93;0.93;;;24.50;99.40;;;;;;5073339;28;20186;-83
2022/06/21 10:57:09;;;;;;;0.80;0.75;;;24.70;98.80;;;;;;5060754;28;20268;-82
2022/06/21 10:59:00;;;;;;;3.00;0.98;;;25.00;98.90;;;;;;5072842;28;20252;-80
2022/06/21 11:01:32;;;;;;;0.60;0.60;;;25.70;97.30;;;;;;5073483;28;20192;-82
2022/06/21 11:04:28;;;;;;;1.13;0.90;;;26.10;96.50;;;;;;5073218;28;20186;-81
2022/06/21 11:07:03;;;;;;;0.80;0.80;;;26.20;96.80;;;;;;5072964;28;20210;-81
2022/06/21 11:09:36;;;;;;;1.85;0.98;;;26.30;96.60;;;;;;5072884;28;20204;-82
2022/06/21 11:15:08;;;;;;;1.98;1.00;;;26.30;96.10;;;;;;5072940;28;20279;-82
2022/06/21 11:17:46;;;;;;;1.00;0.90;;;26.00;96.40;;;;;;5072793;28;20197;-82
2022/06/21 11:20:22;;;;;;;2.03;1.17;;;25.70;96.90;;;;;;5072775;28;20186;-82
2022/06/21 11:23:01;;;;;;;1.20;1.10;;;25.50;96.70;;;;;;5072715;28;20629;-81
2022/06/21 11:25:38;;;;;;;3.45;0.85;;;25.10;98.10;;;;;;5072597;28;20721;-82
2022/06/21 11:28:17;;;;;;;1.17;1.13;;;24.90;98.40;;;;;;5072984;28;20265;-81
2022/06/21 11:30:51;;;;;;;0.93;0.93;;;24.90;98.20;;;;;;5073052;28;20197;-80
2022/06/21 11:33:28;;;;;;;1.40;0.90;;;24.70;98.50;;;;;;5072882;28;20209;-81
2022/06/21 11:36:03;;;;;;;1.13;1.02;;;24.60;98.80;;;;;;5072165;28;20736;-81
2022/06/21 11:38:42;;;;;;;0.85;0.85;;;24.70;99.00;;;;;;5072626;28;20181;-81
2022/06/21 11:42:04;;;;;;;1.50;1.02;;;24.90;99.00;;;;;;5072512;28;20666;-81
2022/06/21 11:44:12;;;;;;;1.30;1.20;;;24.90;98.40;;;;;;5072247;28;20206;-81
2022/06/21 11:46:46;;;;;;;0.98;0.88;;;25.00;97.80;;;;;;5072784;28;20186;-81
2022/06/21 11:49:38;;;;;;;1.23;1.08;;;24.90;98.40;;;;;;5072770;28;20216;-81
2022/06/21 11:52:34;;;;;;;1.17;1.08;;;24.70;98.80;;;;;;5074994;28;20190;-80
2022/06/21 11:55:13;;;;;;;1.05;1.05;;;24.50;98.90;;;;;;5076098;28;20222;-81
2022/06/21 11:57:47;;;;;;;1.00;0.90;;;24.60;99.20;;;;;;5077046;28;20186;-80
2022/06/21 12:00:20;;;;;;;1.10;1.00;;;24.50;99.70;;;;;;5076577;28;20194;-80
2022/06/21 12:02:54;;;;;;;1.58;0.80;;;24.60;99.80;;;;;;5076588;28;20213;-80
2022/06/21 12:05:33;;;;;;;1.17;1.17;;;24.50;99.90;;;;;;5076217;28;20217;-82
2022/06/21 12:08:08;;;;;;;2.58;1.27;;;24.60;99.50;;;;;;5075785;28;20186;-81
2022/06/21 12:10:46;;;;;;;2.10;1.33;;;24.70;99.40;;;;;;5076042;28;20213;-81
2022/06/21 12:13:27;;;;;;;0.80;0.80;;;24.90;99.30;;;;;;5075714;28;20665;-81
2022/06/21 12:16:04;;;;;;;0.60;0.60;;;25.00;99.40;;;;;;5075482;28;20734;-81
2022/06/21 12:18:34;;;;;;;1.85;1.75;;;25.10;99.00;;;;;;5075825;28;20190;-81
2022/06/21 12:21:05;;;;;;;1.30;0.90;;;25.10;99.30;;;;;;5075819;28;20197;-81
2022/06/21 12:23:41;;;;;;;1.15;1.05;;;25.00;99.70;;;;;;5075833;28;20552;-81
2022/06/21 12:26:11;;;;;;;1.38;1.27;;;24.90;99.90;;;;;;5075673;28;20221;-81
2022/06/21 12:28:40;;;;;;;1.15;1.05;;;24.80;99.90;;;;;;5075680;28;20201;-80
2022/06/21 12:31:14;;;;;;;0.80;0.80;;;24.70;99.90;;;;;;5075580;28;20264;-80
2022/06/21 12:33:43;;;;;;;1.35;1.25;;;24.70;99.90;;;;;;5075765;28;20186;-80
2022/06/21 12:36:22;;;;;;;1.20;1.10;;;24.60;99.90;;;;;;5074913;28;20241;-80
2022/06/21 12:38:56;;;;;;;1.67;1.00;;;24.50;99.90;;;;;;5075500;28;20186;-80
2022/06/21 12:41:39;;;;;;;1.05;1.02;;;24.40;99.90;;;;;;5075590;28;20185;-81
2022/06/21 12:44:13;;;;;;;1.20;1.00;;;24.70;99.90;;;;;;5075065;28;20656;-81
2022/06/21 12:46:48;;;;;;;0.80;0.80;;;24.70;99.90;;;;;;5075542;28;20182;-81
2022/06/21 12:49:40;;;;;;;0.73;0.70;;;24.70;99.90;;;;;;5075328;28;20237;-81
2022/06/21 12:52:18;;;;;;;1.05;0.95;;;24.70;99.90;;;;;;5075298;28;20282;-81
2022/06/21 12:54:59;;;;;;;1.50;0.82;;;24.90;99.90;;;;;;5075374;28;20229;-81
2022/06/21 12:57:45;;;;;;;0.95;0.95;;;25.00;99.90;;;;;;5075173;28;20183;-81
2022/06/21 13:00:22;;;;;;;0.90;0.90;;;24.90;99.90;;;;;;5075085;28;20186;-81
2022/06/21 13:03:22;;;;;;;0.95;0.95;;;24.90;99.90;;;;;;5074858;28;20190;-80
2022/06/21 13:06:05;;;;;;;1.10;0.95;;;24.90;99.90;;;;;;5074911;28;20240;-81
2022/06/21 13:08:51;;;;;;;2.55;1.13;;;24.70;99.90;;;;;;5074933;28;20186;-81
2022/06/21 13:11:41;;;;;;;1.63;1.20;;;24.70;99.90;;;;;;5074860;28;20209;-81
2022/06/21 13:14:33;;;;;;;1.27;1.17;;;24.60;99.90;;;;;;5074723;28;20586;-81
2022/06/21 13:17:15;;;;;;;1.70;1.00;;;24.60;99.90;;;;;;5074335;28;20202;-81
2022/06/21 13:19:54;;;;;;;1.17;1.00;;;24.60;99.90;;;;;;5074375;28;20186;-82
2022/06/21 13:22:42;;;;;;;1.55;0.98;;;24.70;99.90;;;;;;5074673;28;20182;-81
2022/06/21 13:25:35;;;;;;;1.25;1.00;;;24.70;99.90;;;;;;5074166;28;20709;-81
2022/06/21 13:28:16;;;;;;;0.90;0.82;;;24.70;99.90;;;;;;5074543;28;20190;-81
2022/06/21 13:30:51;;;;;;;1.40;1.00;;;24.50;99.90;;;;;;5074519;28;20193;-81
2022/06/21 13:33:22;;;;;;;0.75;0.75;;;24.40;99.90;;;;;;5074671;28;20186;-80
2022/06/21 13:35:57;;;;;;;2.75;1.15;;;24.50;99.90;;;;;;5073945;28;20230;-81
2022/06/21 13:38:29;;;;;;;1.02;0.90;;;24.60;99.90;;;;;;5074365;28;20186;-81
2022/06/21 13:41:04;;;;;;;2.85;1.33;;;24.60;99.90;;;;;;5074257;28;20221;-80